Time;durP1;ratioP1;P1;durP2;ratioP2;P2;SDS_P1;SDS_P2;PMS_P1;PMS_P2;Temp;Humidity;BMP_temperature;BMP_pressure;BME280_temperature;BME280_humidity;BME280_pressure;Samples;Min_cycle;Max_cycle;Signal;HPM_P1;HPM_P2
2022/08/23 00:02:16;;;;;;;27.38;16.88;;;;;;;19.99;100.00;96319.97;5027714;28;20057;-68
2022/08/23 00:04:50;;;;;;;28.02;16.33;;;;;;;20.07;100.00;96331.78;5028004;28;20084;-63
2022/08/23 00:07:40;;;;;;;21.75;15.15;;;;;;;19.98;100.00;96329.63;5028064;28;20125;-68
2022/08/23 00:10:10;;;;;;;21.15;15.02;;;;;;;20.12;100.00;96353.72;5028096;28;20057;-69
2022/08/23 00:12:38;;;;;;;24.85;15.68;;;;;;;20.16;100.00;96354.41;5027970;28;20435;-65
2022/08/23 00:15:07;;;;;;;21.88;15.40;;;;;;;20.15;100.00;96352.84;5026822;28;20053;-64
2022/08/23 00:17:35;;;;;;;26.10;15.55;;;;;;;19.84;100.00;96309.63;5026391;28;20580;-69
2022/08/23 00:20:07;;;;;;;22.98;15.38;;;;;;;19.85;100.00;96325.22;5026391;28;20049;-68
2022/08/23 00:22:34;;;;;;;22.05;14.95;;;;;;;20.20;100.00;96346.66;5042848;28;20053;-69
2022/08/23 00:25:01;;;;;;;21.15;15.32;;;;;;;19.98;100.00;96309.16;5026306;28;20060;-64
2022/08/23 00:27:28;;;;;;;28.02;15.18;;;;;;;20.12;100.00;96339.66;5042491;28;20503;-65
2022/08/23 00:29:56;;;;;;;21.63;15.52;;;;;;;20.03;100.00;96337.50;5021335;28;20057;-68
2022/08/23 00:32:27;;;;;;;23.30;16.75;;;;;;;19.66;100.00;96278.44;5007453;28;20069;-68
2022/08/23 00:34:54;;;;;;;20.08;15.27;;;;;;;19.93;100.00;96337.84;5008088;28;20593;-65
2022/08/23 00:37:22;;;;;;;21.75;15.48;;;;;;;20.18;100.00;96357.56;5006458;28;20068;-64
2022/08/23 00:39:49;;;;;;;20.42;14.88;;;;;;;20.10;100.00;96350.53;5006478;28;20057;-65
2022/08/23 00:47:53;;;;;;;23.63;16.75;;;;;;;20.16;100.00;96357.22;5007939;28;20058;-65
2022/08/23 00:50:36;;;;;;;25.20;15.70;;;;;;;20.14;100.00;96346.41;5006799;28;20053;-68
2022/08/23 00:53:13;;;;;;;22.58;16.55;;;;;;;20.09;100.00;96351.78;5008003;28;20046;-64
2022/08/23 00:55:43;;;;;;;25.85;17.00;;;;;;;20.07;100.00;96357.06;5006549;28;21209;-64
2022/08/23 00:58:12;;;;;;;30.58;17.77;;;;;;;19.72;100.00;96305.53;5007729;28;20046;-65
2022/08/23 01:00:39;;;;;;;30.90;18.55;;;;;;;19.86;100.00;96324.78;5007561;28;20053;-68
2022/08/23 01:03:09;;;;;;;21.52;17.45;;;;;;;19.37;100.00;96250.44;5007180;28;20065;-64
2022/08/23 01:05:51;;;;;;;20.83;16.10;;;;;;;19.99;100.00;96358.53;5005840;28;20062;-67
2022/08/23 01:08:22;;;;;;;27.95;18.33;;;;;;;20.00;100.00;96365.72;5007200;28;20050;-63
2022/08/23 01:10:55;;;;;;;22.83;17.08;;;;;;;20.01;100.00;96356.06;5007409;28;20049;-68
2022/08/23 01:13:28;;;;;;;20.83;15.90;;;;;;;19.94;100.00;96340.19;5007473;28;20578;-69
2022/08/23 01:16:04;;;;;;;24.58;15.18;;;;;;;20.10;100.00;96359.00;5007321;28;20057;-63
2022/08/23 01:18:32;;;;;;;21.00;15.38;;;;;;;19.99;100.00;96347.28;5006903;28;20053;-67
2022/08/23 01:20:59;;;;;;;17.08;14.32;;;;;;;20.06;100.00;96359.09;5005596;28;20053;-67
2022/08/23 01:23:42;;;;;;;23.55;15.77;;;;;;;20.02;100.00;96368.88;5007204;28;20096;-63
2022/08/23 01:26:11;;;;;;;28.05;15.88;;;;;;;20.02;100.00;96374.50;5005448;28;20527;-64
2022/08/23 01:28:39;;;;;;;19.10;15.95;;;;;;;19.99;100.00;96370.56;5005697;28;20054;-68
2022/08/23 01:31:12;;;;;;;23.10;15.80;;;;;;;19.77;100.00;96346.34;5021151;28;20065;-68
2022/08/23 01:33:40;;;;;;;19.88;15.25;;;;;;;19.32;100.00;96279.84;5026790;28;20071;-64
2022/08/23 01:36:10;;;;;;;22.25;14.80;;;;;;;20.00;100.00;96376.97;5041706;28;20064;-63
2022/08/23 01:38:37;;;;;;;22.05;15.13;;;;;;;19.81;100.00;96324.53;5026997;28;20056;-63
2022/08/23 01:41:05;;;;;;;17.65;13.88;;;;;;;19.64;100.00;96315.44;5026618;28;20061;-68
2022/08/23 01:43:32;;;;;;;22.63;14.50;;;;;;;19.87;100.00;96374.13;5025310;28;20486;-64
2022/08/23 01:46:10;;;;;;;21.35;14.32;;;;;;;19.97;100.00;96377.88;5041589;28;20061;-67
2022/08/23 01:48:38;;;;;;;22.02;13.82;;;;;;;20.04;100.00;96378.47;5026181;28;20053;-64
2022/08/23 01:51:04;;;;;;;17.60;13.88;;;;;;;19.49;100.00;96292.56;5026105;28;20061;-68
2022/08/23 01:53:32;;;;;;;20.20;14.35;;;;;;;19.97;100.00;96356.16;5025914;28;20053;-68
2022/08/23 01:56:02;;;;;;;21.90;14.98;;;;;;;19.82;100.00;96359.88;5026397;28;20050;-68
2022/08/23 01:58:32;;;;;;;18.98;13.95;;;;;;;20.00;100.00;96360.09;5026281;28;20053;-67
2022/08/23 02:01:00;;;;;;;20.60;13.88;;;;;;;19.94;100.00;96356.28;5026034;28;20060;-68
2022/08/23 02:03:28;;;;;;;21.13;15.20;;;;;;;19.98;100.00;96351.34;5024276;28;20062;-64
2022/08/23 02:05:55;;;;;;;21.73;14.82;;;;;;;20.07;100.00;96359.88;5025930;28;20073;-65
2022/08/23 02:11:11;;;;;;;27.55;15.27;;;;;;;19.28;100.00;96253.88;5025923;28;20057;-64
2022/08/23 02:13:38;;;;;;;19.63;14.48;;;;;;;19.98;100.00;96356.97;5024389;28;20049;-66
2022/08/23 02:16:05;;;;;;;18.77;13.68;;;;;;;19.41;100.00;96268.75;5026036;28;20062;-63
2022/08/23 02:18:31;;;;;;;24.08;13.75;;;;;;;19.99;100.00;96344.47;5025837;28;20045;-68
2022/08/23 02:20:59;;;;;;;20.75;13.98;;;;;;;19.92;100.00;96342.66;5025837;28;20533;-63
2022/08/23 02:23:26;;;;;;;25.92;14.50;;;;;;;19.71;100.00;96331.28;5024201;28;20107;-63
2022/08/23 02:25:53;;;;;;;18.40;13.90;;;;;;;19.92;100.00;96353.09;5025419;28;20050;-67
2022/08/23 02:28:22;;;;;;;20.25;13.65;;;;;;;19.80;100.00;96345.47;5025519;28;20053;-64
2022/08/23 02:30:52;;;;;;;20.52;14.00;;;;;;;19.87;100.00;96362.13;5024896;28;20068;-68
2022/08/23 02:33:19;;;;;;;19.45;14.15;;;;;;;19.84;100.00;96363.03;5025329;28;20510;-63
2022/08/23 02:35:46;;;;;;;19.80;14.32;;;;;;;19.80;100.00;96379.19;5025233;28;20049;-63
2022/08/23 02:38:13;;;;;;;21.33;14.88;;;;;;;19.77;100.00;96380.88;5025610;28;20525;-68
2022/08/23 02:40:41;;;;;;;18.70;14.95;;;;;;;19.74;100.00;96380.97;5025494;28;20435;-68
2022/08/23 02:43:08;;;;;;;20.65;14.70;;;;;;;19.71;100.00;96387.50;5025407;28;20080;-63
2022/08/23 02:45:36;;;;;;;20.48;13.50;;;;;;;19.22;100.00;96316.66;5024850;28;20049;-63
2022/08/23 02:48:03;;;;;;;19.75;13.38;;;;;;;19.31;100.00;96337.28;5023913;28;20052;-67
2022/08/23 02:50:30;;;;;;;20.13;13.38;;;;;;;19.57;100.00;96385.88;5023533;28;20060;-64
2022/08/23 02:52:58;;;;;;;21.52;14.05;;;;;;;19.57;100.00;96383.06;5025266;28;20060;-64
2022/08/23 02:55:25;;;;;;;17.27;13.45;;;;;;;19.50;100.00;96392.50;5025108;28;20045;-68
2022/08/23 02:57:52;;;;;;;18.63;13.43;;;;;;;19.44;100.00;96368.19;5024889;28;20507;-68
2022/08/23 03:00:20;;;;;;;17.33;12.77;;;;;;;19.53;100.00;96428.13;5023667;28;20434;-62
2022/08/23 03:02:47;;;;;;;21.02;13.77;;;;;;;19.13;100.00;96353.78;5025052;28;20057;-63
2022/08/23 03:05:14;;;;;;;20.10;13.68;;;;;;;19.45;100.00;96409.91;5025561;28;20050;-67
2022/08/23 03:07:41;;;;;;;23.25;15.13;;;;;;;19.41;100.00;96403.56;5024922;28;20058;-63
2022/08/23 03:10:09;;;;;;;20.90;13.63;;;;;;;19.43;100.00;96401.13;5024755;28;20058;-68
2022/08/23 03:12:36;;;;;;;19.13;13.18;;;;;;;19.46;100.00;96414.28;5024519;28;20055;-68
2022/08/23 03:15:05;;;;;;;19.75;14.38;;;;;;;19.45;100.00;96393.03;5024554;28;20053;-68
2022/08/23 03:17:33;;;;;;;19.50;13.60;;;;;;;19.05;100.00;96313.09;5024754;28;20049;-69
2022/08/23 03:20:00;;;;;;;23.27;13.93;;;;;;;19.72;100.00;96411.53;5024668;28;20045;-69
2022/08/23 03:22:26;;;;;;;20.40;13.98;;;;;;;19.74;100.00;96409.09;5023295;28;20507;-69
2022/08/23 03:24:53;;;;;;;23.50;15.40;;;;;;;19.78;100.00;96415.38;5025012;28;20072;-69
2022/08/23 03:27:19;;;;;;;17.60;14.07;;;;;;;19.84;100.00;96414.38;5023363;28;20104;-63
2022/08/23 03:29:46;;;;;;;18.98;14.77;;;;;;;19.97;100.00;96412.41;5021016;28;20503;-69
2022/08/23 03:32:13;;;;;;;23.92;14.75;;;;;;;20.04;100.00;96434.69;4812890;28;5001034;-69
2022/08/23 03:34:41;;;;;;;22.42;14.38;;;;;;;19.60;100.00;96370.16;5005225;28;20086;-68
2022/08/23 03:37:07;;;;;;;19.25;13.13;;;;;;;20.23;100.00;96441.38;5004949;28;20435;-68
2022/08/23 03:39:34;;;;;;;20.13;12.77;;;;;;;20.27;100.00;96440.03;5004997;28;20057;-63
2022/08/23 03:42:01;;;;;;;16.67;13.10;;;;;;;20.32;100.00;96441.50;5005320;28;20064;-63
2022/08/23 03:44:28;;;;;;;15.52;13.05;;;;;;;20.34;100.00;96430.59;5003970;28;20509;-64
2022/08/23 03:46:54;;;;;;;14.57;12.73;;;;;;;20.09;100.00;96403.19;5004009;28;20069;-68
2022/08/23 03:49:21;;;;;;;16.65;12.38;;;;;;;20.27;100.00;96428.78;5004861;28;20479;-63
2022/08/23 03:51:48;;;;;;;16.98;15.13;;;;;;;20.29;100.00;96446.00;5004995;28;20049;-69
2022/08/23 03:54:14;;;;;;;18.70;14.63;;;;;;;19.79;100.00;96411.34;5004695;28;20440;-69
2022/08/23 03:56:54;;;;;;;29.15;16.48;;;;;;;19.66;100.00;96435.81;5003459;28;20132;-63
2022/08/23 03:59:21;;;;;;;22.27;14.23;;;;;;;19.03;100.00;96382.91;5004895;28;20444;-63
2022/08/23 04:01:48;;;;;;;26.70;15.80;;;;;;;19.46;100.00;96439.56;5004924;28;20061;-63
2022/08/23 04:04:15;;;;;;;23.58;15.52;;;;;;;19.29;100.00;96395.88;5005209;28;20085;-69
2022/08/23 04:06:44;;;;;;;21.50;15.75;;;;;;;19.61;100.00;96439.16;5003255;28;20050;-69
2022/08/23 04:09:12;;;;;;;24.52;15.30;;;;;;;19.53;100.00;96394.41;5003177;28;20500;-69
2022/08/23 04:11:39;;;;;;;25.50;15.75;;;;;;;19.98;100.00;96427.25;5002927;28;20054;-65
2022/08/23 04:14:06;;;;;;;21.02;14.70;;;;;;;20.04;100.00;96417.03;5004795;28;20587;-64
2022/08/23 04:16:37;;;;;;;19.75;15.93;;;;;;;19.88;100.00;96383.38;5004637;28;20483;-69
2022/08/23 04:19:06;;;;;;;23.60;15.23;;;;;;;20.38;100.00;96428.44;5004471;28;20057;-67
2022/08/23 04:21:36;;;;;;;18.50;15.45;;;;;;;20.47;100.00;96422.97;5004228;28;20571;-69
2022/08/23 04:24:04;;;;;;;20.15;15.13;;;;;;;20.56;100.00;96415.41;5004799;28;20049;-62
2022/08/23 04:26:31;;;;;;;31.50;16.90;;;;;;;20.55;100.00;96416.63;5007063;28;20057;-68
2022/08/23 04:28:59;;;;;;;23.33;15.57;;;;;;;20.55;100.00;96413.06;5008143;28;20057;-69
2022/08/23 04:31:26;;;;;;;20.98;15.43;;;;;;;20.21;100.00;96339.78;5024006;28;20184;-63
2022/08/23 04:34:00;;;;;;;16.10;14.23;;;;;;;20.78;100.00;96421.13;5026816;28;20546;-69
2022/08/23 04:36:38;;;;;;;18.88;14.80;;;;;;;20.92;100.00;96415.81;5027577;28;20087;-68
2022/08/23 04:39:05;;;;;;;23.60;12.82;;;;;;;20.67;100.00;96350.31;5027697;28;20053;-69
2022/08/23 04:44:17;;;;;;;16.90;12.48;;;;;;;21.34;100.00;96407.94;5027468;28;20557;-69
2022/08/23 04:46:43;;;;;;;19.90;12.48;;;;;;;21.42;100.00;96414.91;5027529;28;20503;-63
2022/08/23 04:49:10;;;;;;;19.15;13.38;;;;;;;21.54;100.00;96428.19;5027312;28;20060;-69
2022/08/23 04:51:38;;;;;;;16.17;12.38;;;;;;;21.71;100.00;96414.69;5027234;28;20073;-67
2022/08/23 04:54:04;;;;;;;18.38;12.73;;;;;;;21.38;100.00;96380.44;5026140;28;20060;-68
2022/08/23 04:56:31;;;;;;;20.45;13.02;;;;;;;21.69;100.00;96388.97;5025952;28;20073;-69
2022/08/23 04:58:58;;;;;;;12.90;11.48;;;;;;;21.77;100.00;96391.09;5027063;28;20061;-70
2022/08/23 05:01:25;;;;;;;16.08;12.00;;;;;;;22.03;100.00;96431.25;5026911;28;20053;-63
2022/08/23 05:03:53;;;;;;;19.83;12.43;;;;;;;22.16;100.00;96435.53;5026805;28;20045;-62
2022/08/23 05:06:21;;;;;;;17.05;11.90;;;;;;;22.19;100.00;96428.97;5026914;28;20056;-68
2022/08/23 05:08:47;;;;;;;25.30;12.82;;;;;;;22.21;100.00;96434.94;5026941;28;20896;-60
2022/08/23 05:11:17;;;;;;;15.40;11.52;;;;;;;22.35;100.00;96425.94;5026950;28;20119;-68
2022/08/23 05:13:44;;;;;;;16.58;11.98;;;;;;;22.38;100.00;96435.53;5025685;28;20068;-68
2022/08/23 05:16:11;;;;;;;20.48;11.57;;;;;;;22.35;100.00;96414.66;5027050;28;20145;-62
2022/08/23 05:18:38;;;;;;;14.80;11.48;;;;;;;22.61;100.00;96432.19;5026962;28;20084;-67
2022/08/23 05:21:05;;;;;;;16.73;11.13;;;;;;;22.78;99.50;96410.16;5026782;28;20144;-68
2022/08/23 05:23:32;;;;;;;14.70;12.82;;;;;;;22.99;98.68;96423.38;5026849;28;20206;-61
2022/08/23 05:25:59;;;;;;;16.75;10.63;;;;;;;23.02;97.79;96423.25;5026680;28;20056;-61
2022/08/23 05:28:29;;;;;;;15.25;11.13;;;;;;;23.06;98.62;96417.47;5026563;28;20057;-61
2022/08/23 05:31:02;;;;;;;16.63;11.98;;;;;;;23.23;99.42;96424.38;5014067;28;20058;-61
2022/08/23 05:33:31;;;;;;;12.18;10.73;;;;;;;23.37;97.47;96423.81;5007279;28;20057;-62
2022/08/23 05:35:58;;;;;;;15.30;11.18;;;;;;;23.31;96.18;96411.56;5006464;28;20056;-62
2022/08/23 05:38:25;;;;;;;15.00;10.70;;;;;;;23.43;96.15;96413.44;5005576;28;20049;-67
2022/08/23 05:40:56;;;;;;;15.15;12.25;;;;;;;23.46;96.59;96409.69;5006420;28;20072;-68
2022/08/23 05:43:25;;;;;;;11.55;10.35;;;;;;;23.46;96.99;96387.06;5017776;28;20175;-60
2022/08/23 05:46:12;;;;;;;17.90;11.65;;;;;;;23.75;96.37;96410.81;5019072;28;20050;-71
2022/08/23 05:48:41;;;;;;;17.05;13.13;;;;;;;23.97;93.68;96424.78;5025663;28;20061;-60
2022/08/23 05:51:08;;;;;;;18.08;11.20;;;;;;;24.14;91.14;96417.53;5025547;28;20065;-59
2022/08/23 05:53:36;;;;;;;12.02;10.43;;;;;;;24.14;90.64;96417.53;5024789;28;20439;-65
2022/08/23 05:56:09;;;;;;;16.52;12.27;;;;;;;24.16;90.61;96417.03;5024709;28;20052;-60
2022/08/23 05:58:35;;;;;;;16.75;10.90;;;;;;;24.02;91.99;96426.19;5024858;28;20522;-59
2022/08/23 06:01:02;;;;;;;21.50;12.70;;;;;;;23.49;94.43;96369.19;5023503;28;20080;-63
2022/08/23 06:03:29;;;;;;;15.15;12.15;;;;;;;23.87;95.34;96415.50;5025453;28;20099;-58
2022/08/23 06:05:57;;;;;;;19.52;12.18;;;;;;;23.66;93.74;96365.53;5025684;28;20068;-57
2022/08/23 06:08:24;;;;;;;13.70;11.75;;;;;;;24.22;92.85;96417.97;5025541;28;20111;-63
2022/08/23 06:11:04;;;;;;;19.02;12.70;;;;;;;24.12;91.78;96419.28;5025248;28;20512;-59
2022/08/23 06:13:31;;;;;;;15.98;12.85;;;;;;;24.29;92.50;96428.97;5025592;28;20053;-71
2022/08/23 06:15:58;;;;;;;11.90;10.73;;;;;;;24.54;87.81;96423.72;5024604;28;20061;-57
2022/08/23 06:18:40;;;;;;;15.75;11.00;;;;;;;24.85;85.79;96421.41;5025896;28;20054;-62
2022/08/23 06:21:09;;;;;;;19.83;11.38;;;;;;;25.03;85.21;96421.34;5025193;28;20065;-61
2022/08/23 06:23:36;;;;;;;11.70;10.50;;;;;;;25.21;83.18;96421.22;5025198;28;20053;-58
2022/08/23 06:26:13;;;;;;;13.75;10.73;;;;;;;25.08;81.22;96372.50;5025185;28;20049;-65
2022/08/23 06:28:42;;;;;;;12.85;10.38;;;;;;;24.90;80.89;96337.78;5005529;28;20053;-65
2022/08/23 06:31:44;;;;;;;14.13;10.98;;;;;;;25.64;81.23;96430.41;5017170;28;20061;-59
2022/08/23 06:34:06;;;;;;;13.65;10.18;;;;;;;25.87;79.04;96419.03;5024826;28;20048;-62
2022/08/23 06:36:33;;;;;;;11.73;10.52;;;;;;;25.43;78.88;96335.06;5019531;28;20061;-57
2022/08/23 06:39:00;;;;;;;14.43;11.18;;;;;;;25.93;79.30;96436.16;5013095;28;20051;-58
2022/08/23 06:41:27;;;;;;;14.55;10.50;;;;;;;26.03;80.60;96429.97;5024958;28;20060;-59
2022/08/23 06:43:53;;;;;;;13.50;10.90;;;;;;;26.19;78.53;96437.22;5025079;28;20053;-68
2022/08/23 06:46:24;;;;;;;16.00;11.23;;;;;;;26.11;79.66;96442.50;5024574;28;20045;-57
2022/08/23 06:48:54;;;;;;;15.90;10.50;;;;;;;26.04;79.25;96408.00;5024683;28;20045;-63
2022/08/23 06:51:30;;;;;;;11.32;10.23;;;;;;;26.41;77.72;96443.31;5025299;28;20400;-66
2022/08/23 06:54:00;;;;;;;15.68;11.60;;;;;;;26.50;77.73;96452.50;5020254;28;20111;-62
2022/08/23 06:56:29;;;;;;;15.50;11.10;;;;;;;26.52;77.95;96449.19;5005191;28;20049;-63
2022/08/23 06:58:56;;;;;;;11.98;9.40;;;;;;;26.66;77.11;96454.91;5024259;28;20049;-56
2022/08/23 07:01:37;;;;;;;11.32;9.77;;;;;;;26.86;76.08;96451.34;5023270;28;20050;-60
2022/08/23 07:04:16;;;;;;;13.85;11.13;;;;;;;26.92;76.64;96457.88;5024049;28;20053;-60
2022/08/23 07:06:43;;;;;;;12.60;10.05;;;;;;;27.07;74.83;96455.81;5022839;28;20045;-57
2022/08/23 07:09:10;;;;;;;16.90;10.38;;;;;;;27.16;75.22;96450.00;5024447;28;20053;-62
2022/08/23 07:11:38;;;;;;;12.50;9.88;;;;;;;26.64;74.57;96382.75;5022567;28;20057;-58
2022/08/23 07:14:09;;;;;;;12.65;10.68;;;;;;;27.09;74.01;96447.59;5024364;28;20063;-65
2022/08/23 07:17:02;;;;;;;15.98;10.02;;;;;;;27.22;75.04;96462.22;5024337;28;20336;-59
2022/08/23 07:19:33;;;;;;;15.30;10.55;;;;;;;27.47;75.03;96455.94;5011155;28;20104;-58
2022/08/23 07:22:01;;;;;;;15.18;9.80;;;;;;;27.59;72.47;96460.47;5014111;28;20507;-61
2022/08/23 07:24:29;;;;;;;16.48;11.40;;;;;;;27.61;71.75;96460.78;5022496;28;20057;-61
2022/08/23 07:27:00;;;;;;;10.20;9.25;;;;;;;27.88;68.75;96457.50;5024131;28;20072;-64
2022/08/23 07:29:28;;;;;;;10.77;8.93;;;;;;;27.97;68.51;96460.22;5038034;28;20140;-59
2022/08/23 07:31:56;;;;;;;9.73;8.18;;;;;;;27.57;68.61;96408.97;5002687;28;20077;-59
2022/08/23 07:34:24;;;;;;;14.10;9.00;;;;;;;28.00;66.31;96456.38;5022418;28;20053;-57
2022/08/23 07:36:52;;;;;;;14.98;9.20;;;;;;;28.12;65.76;96449.53;5024067;28;20045;-60
2022/08/23 07:39:21;;;;;;;10.30;9.20;;;;;;;28.23;64.84;96465.19;5024576;28;20436;-61
2022/08/23 07:41:48;;;;;;;15.30;9.07;;;;;;;27.98;63.57;96439.00;5024304;28;20049;-60
2022/08/23 07:44:16;;;;;;;10.77;9.13;;;;;;;28.36;63.82;96465.59;5024516;28;20080;-61
2022/08/23 07:46:45;;;;;;;10.95;8.98;;;;;;;28.63;64.78;96453.72;5024282;28;20054;-58
2022/08/23 07:49:13;;;;;;;12.93;8.95;;;;;;;28.69;64.64;96483.06;5004660;28;20141;-62
2022/08/23 07:51:44;;;;;;;12.60;8.48;;;;;;;27.98;63.61;96382.06;5003059;28;20058;-66
2022/08/23 07:54:11;;;;;;;10.68;9.07;;;;;;;28.83;61.98;96490.72;5018933;28;20042;-61
2022/08/23 07:56:39;;;;;;;9.88;8.77;;;;;;;28.59;63.58;96465.34;5022596;28;20111;-61
2022/08/23 07:59:07;;;;;;;14.10;9.60;;;;;;;29.06;63.53;96484.72;5023603;28;20324;-59
2022/08/23 08:01:34;;;;;;;12.45;9.05;;;;;;;29.29;62.70;96479.97;5025372;28;20069;-59
2022/08/23 08:04:03;;;;;;;13.77;8.95;;;;;;;29.58;61.64;96476.78;5028196;28;20482;-59
2022/08/23 08:06:39;;;;;;;13.48;8.95;;;;;;;29.90;59.43;96484.00;5027779;28;20586;-60
2022/08/23 08:09:07;;;;;;;10.48;8.73;;;;;;;29.60;60.80;96491.31;5027896;28;20436;-59
2022/08/23 08:11:34;;;;;;;9.98;8.75;;;;;;;29.72;60.23;96487.25;5027010;28;20050;-59
2022/08/23 08:14:05;;;;;;;11.55;9.57;;;;;;;29.14;58.71;96396.59;5027694;28;20064;-62
2022/08/23 08:16:35;;;;;;;13.35;8.80;;;;;;;29.73;58.93;96494.56;5026671;28;20060;-56
2022/08/23 08:19:05;;;;;;;26.92;14.07;;;;;;;29.63;59.60;96495.22;5041915;28;20041;-64
2022/08/23 08:21:34;;;;;;;11.82;9.05;;;;;;;29.82;59.09;96494.34;5021618;28;20065;-58
2022/08/23 08:24:01;;;;;;;11.63;9.30;;;;;;;30.11;58.10;96499.69;5008061;28;20410;-65
2022/08/23 08:26:28;;;;;;;10.10;8.60;;;;;;;30.12;55.52;96498.38;5007897;28;20057;-55
2022/08/23 08:28:55;;;;;;;15.07;9.38;;;;;;;29.98;57.24;96482.22;5007833;28;20141;-58
2022/08/23 08:31:23;;;;;;;11.80;8.45;;;;;;;29.93;58.07;96477.25;5024195;28;20068;-51
2022/08/23 08:33:50;;;;;;;9.98;8.98;;;;;;;29.56;57.79;96468.72;5026511;28;20056;-50
2022/08/23 08:36:48;;;;;;;13.32;9.18;;;;;;;29.79;57.82;96492.50;5026404;28;20045;-50
2022/08/23 08:39:19;;;;;;;9.52;8.60;;;;;;;29.54;58.65;96487.66;5015074;28;20057;-50
2022/08/23 08:41:49;;;;;;;10.10;8.85;;;;;;;29.60;58.22;96479.91;5026897;28;20140;-59
2022/08/23 08:44:54;;;;;;;12.18;9.75;;;;;;;29.24;58.06;96435.06;5026595;28;20081;-60
2022/08/23 08:47:46;;;;;;;13.38;9.35;;;;;;;29.69;58.04;96471.16;5027267;28;20436;-58
2022/08/23 08:50:27;;;;;;;10.18;9.02;;;;;;;29.67;58.53;96473.72;5026812;28;20485;-58
2022/08/23 08:53:00;;;;;;;11.70;8.57;;;;;;;29.97;56.35;96457.78;5020247;28;20042;-55
2022/08/23 08:55:59;;;;;;;17.48;8.32;;;;;;;30.08;58.26;96463.53;5025877;28;20056;-60
2022/08/23 08:58:40;;;;;;;14.50;9.32;;;;;;;29.73;57.08;96397.47;5000466;28;20133;-53
2022/08/23 09:01:07;;;;;;;14.38;8.93;;;;;;;29.86;57.71;96474.88;5018358;28;20053;-60
2022/08/23 09:03:35;;;;;;;10.55;8.80;;;;;;;29.37;57.06;96384.78;5026538;28;20925;-61
2022/08/23 09:06:26;;;;;;;11.23;9.32;;;;;;;30.14;55.20;96469.28;5026092;28;20081;-60
2022/08/23 09:08:56;;;;;;;14.25;9.30;;;;;;;30.26;55.43;96480.28;5026507;28;20053;-59
2022/08/23 09:11:33;;;;;;;13.90;10.23;;;;;;;30.14;56.75;96478.66;5024571;28;20053;-68
2022/08/23 09:14:43;;;;;;;12.20;10.05;;;;;;;30.30;56.77;96486.53;5026456;28;20061;-65
2022/08/23 09:17:42;;;;;;;11.18;9.25;;;;;;;29.88;57.00;96477.22;5026341;28;20156;-68
2022/08/23 09:20:13;;;;;;;16.55;12.10;;;;;;;30.27;57.02;96484.69;5007649;28;20418;-67
2022/08/23 09:22:44;;;;;;;13.07;10.40;;;;;;;30.13;56.83;96465.63;5026446;28;20053;-66
2022/08/23 09:25:13;;;;;;;12.65;9.43;;;;;;;30.31;55.58;96476.66;5026174;28;20057;-63
2022/08/23 09:27:41;;;;;;;13.32;11.90;;;;;;;29.41;56.63;96425.31;5026233;28;20152;-60
2022/08/23 09:30:14;;;;;;;10.82;9.23;;;;;;;28.86;55.57;96295.78;5024952;28;20060;-61
2022/08/23 09:32:44;;;;;;;11.63;9.57;;;;;;;30.14;55.96;96484.38;5025927;28;20730;-61
2022/08/23 09:35:20;;;;;;;11.00;9.90;;;;;;;30.46;55.79;96491.50;5024645;28;20064;-59
2022/08/23 09:37:49;;;;;;;11.30;9.25;;;;;;;30.61;55.73;96486.34;5025832;28;20056;-60
2022/08/23 09:40:30;;;;;;;31.40;18.38;;;;;;;29.21;54.38;96313.38;5025700;28;20053;-59
2022/08/23 09:43:19;;;;;;;19.73;14.13;;;;;;;29.90;56.09;96498.28;5027129;28;20075;-60
2022/08/23 09:45:49;;;;;;;19.33;14.45;;;;;;;30.13;57.00;96488.50;5025412;28;20046;-66
2022/08/23 09:48:43;;;;;;;15.52;11.85;;;;;;;30.14;56.76;96478.66;5022009;28;20056;-60
2022/08/23 09:51:23;;;;;;;15.07;10.68;;;;;;;29.90;54.98;96481.13;5025751;28;20056;-61
2022/08/23 09:54:27;;;;;;;12.30;9.63;;;;;;;29.68;54.53;96494.50;5025333;28;20057;-60
2022/08/23 09:57:04;;;;;;;10.75;9.73;;;;;;;29.75;55.54;96483.38;5021799;28;20041;-61
2022/08/23 09:59:44;;;;;;;12.15;10.20;;;;;;;30.32;54.38;96488.88;5024660;28;20049;-61
2022/08/23 10:02:22;;;;;;;15.95;9.80;;;;;;;30.75;52.50;96465.31;5023147;28;20053;-61
2022/08/23 10:04:57;;;;;;;10.52;9.25;;;;;;;30.80;52.75;96475.22;5024974;28;20045;-59
2022/08/23 10:07:27;;;;;;;12.07;10.45;;;;;;;30.52;52.66;96472.28;5036106;28;20620;-62
2022/08/23 10:10:23;;;;;;;23.00;14.25;;;;;;;30.70;52.50;96465.28;5023818;28;20524;-58
2022/08/23 10:12:52;;;;;;;16.15;11.60;;;;;;;29.85;53.07;96359.06;5024930;28;20061;-57
2022/08/23 10:15:41;;;;;;;32.05;17.90;;;;;;;30.79;51.97;96460.13;5024099;28;20050;-61
2022/08/23 10:18:27;;;;;;;17.52;10.43;;;;;;;31.12;51.16;96476.53;5023910;28;20053;-58
2022/08/23 10:21:03;;;;;;;10.75;9.32;;;;;;;31.12;50.13;96447.13;5023361;28;20050;-60
2022/08/23 10:23:49;;;;;;;10.63;9.07;;;;;;;31.34;48.35;96482.28;5024309;28;20102;-59
2022/08/23 10:26:28;;;;;;;14.73;10.82;;;;;;;31.12;49.30;96484.34;5025302;28;20041;-58
2022/08/23 10:29:39;;;;;;;15.07;9.88;;;;;;;31.32;48.61;96472.63;5024713;28;20056;-62
2022/08/23 10:32:23;;;;;;;16.23;12.60;;;;;;;30.35;50.71;96465.72;4024459;28;10001515;-58
2022/08/23 10:35:01;;;;;;;13.65;11.90;;;;;;;30.85;49.25;96469.50;4992362;28;20057;-67
2022/08/23 10:37:51;;;;;;;14.25;10.73;;;;;;;30.06;49.28;96323.28;5003583;28;20052;-65
2022/08/23 10:40:36;;;;;;;16.70;11.38;;;;;;;31.14;49.38;96473.16;5004762;28;20432;-62
2022/08/23 10:43:24;;;;;;;12.93;10.43;;;;;;;30.36;50.13;96473.03;5004435;28;20064;-59
2022/08/23 10:45:52;;;;;;;16.92;11.30;;;;;;;30.84;49.47;96473.66;5002483;28;20055;-60
2022/08/23 10:48:30;;;;;;;12.65;11.35;;;;;;;31.68;47.55;96472.31;4999949;28;20053;-62
2022/08/23 10:51:05;;;;;;;11.95;10.23;;;;;;;31.70;46.06;96394.44;5003833;28;20524;-61
2022/08/23 10:53:47;;;;;;;17.73;10.82;;;;;;;32.26;45.73;96476.06;5002954;28;20531;-61
2022/08/23 10:56:19;;;;;;;12.05;10.52;;;;;;;31.91;47.07;96481.66;5004550;28;20061;-59
2022/08/23 10:59:13;;;;;;;17.75;13.00;;;;;;;31.73;46.30;96476.47;5001535;28;20057;-60
2022/08/23 11:01:52;;;;;;;17.02;11.55;;;;;;;31.80;45.35;96473.06;4995885;28;20062;-62
2022/08/23 11:05:02;;;;;;;14.40;10.32;;;;;;;31.93;44.32;96476.19;4987432;28;20510;-58
2022/08/23 11:07:33;;;;;;;12.73;9.18;;;;;;;31.42;45.22;96468.22;4985234;28;20173;-59
2022/08/23 11:10:30;;;;;;;18.75;11.88;;;;;;;31.27;46.90;96465.59;4985187;28;20076;-61
2022/08/23 11:12:59;;;;;;;16.00;11.13;;;;;;;31.02;48.88;96517.38;4985470;28;20488;-61
2022/08/23 11:15:46;;;;;;;13.23;11.15;;;;;;;30.59;48.60;96411.72;5001670;28;20563;-59
2022/08/23 11:18:45;;;;;;;11.95;10.23;;;;;;;30.20;49.47;96475.78;5004470;28;20579;-61
2022/08/23 11:21:17;;;;;;;15.20;11.23;;;;;;;30.56;48.78;96469.97;5001022;28;20061;-61
2022/08/23 11:24:10;;;;;;;13.97;11.60;;;;;;;30.17;49.08;96469.03;4985606;28;20061;-60
2022/08/23 11:26:38;;;;;;;14.70;12.45;;;;;;;30.11;48.99;96473.16;4995908;28;20050;-59
2022/08/23 11:29:05;;;;;;;18.45;14.23;;;;;;;30.38;49.48;96476.13;5003080;28;20069;-58
2022/08/23 11:31:56;;;;;;;17.98;11.52;;;;;;;30.77;47.35;96473.41;5004234;28;20061;-60
2022/08/23 11:34:52;;;;;;;16.05;12.50;;;;;;;30.08;47.83;96354.97;5004470;28;20085;-60
2022/08/23 11:37:19;;;;;;;14.63;11.20;;;;;;;31.42;46.08;96453.91;4999893;28;20108;-60
2022/08/23 11:39:58;;;;;;;14.77;12.63;;;;;;;31.68;45.75;96451.50;5008782;28;20076;-58
2022/08/23 11:42:37;;;;;;;17.88;11.50;;;;;;;31.84;45.90;96450.69;5008153;28;20823;-59
2022/08/23 11:45:36;;;;;;;19.85;12.40;;;;;;;31.72;46.71;96429.88;5005796;28;20050;-59
2022/08/23 11:48:02;;;;;;;13.85;12.15;;;;;;;30.95;47.02;96439.31;4981442;28;20050;-58
2022/08/23 11:51:02;;;;;;;16.30;12.77;;;;;;;30.86;48.48;96439.59;5006616;28;20460;-61